createdAt,value
2023-04-23T00:01:28.222Z,43.85
2023-04-23T00:03:58.380Z,37.22
2023-04-23T00:06:26.965Z,37.83
2023-04-23T00:08:55.351Z,45.83
2023-04-23T00:11:23.436Z,43.83
2023-04-23T00:13:51.071Z,40.95
2023-04-23T00:16:20.841Z,47.08
2023-04-23T00:18:48.115Z,42.67
2023-04-23T00:21:15.393Z,41.25
2023-04-23T00:23:42.380Z,43.35
2023-04-23T00:26:10.165Z,41.28
2023-04-23T00:28:37.189Z,39.45
2023-04-23T00:31:04.773Z,43.50
2023-04-23T00:33:31.648Z,42.78
2023-04-23T00:35:59.112Z,44.72
2023-04-23T00:38:26.711Z,42.17
2023-04-23T00:40:54.437Z,41.83
2023-04-23T00:43:21.362Z,42.20
2023-04-23T00:45:49.449Z,43.85
2023-04-23T00:48:16.765Z,38.90
2023-04-23T00:50:44.337Z,35.45
2023-04-23T00:53:11.317Z,31.83
2023-04-23T00:55:39.138Z,37.83
2023-04-23T00:58:07.092Z,37.78
2023-04-23T01:00:42.624Z,37.53
2023-04-23T01:03:10.798Z,32.90
2023-04-23T01:05:39.456Z,30.90
2023-04-23T01:08:06.984Z,33.30
2023-04-23T01:10:34.635Z,29.95
2023-04-23T01:13:01.836Z,35.60
2023-04-23T01:15:29.258Z,34.50
2023-04-23T01:17:58.557Z,38.53
2023-04-23T01:20:25.809Z,41.03
2023-04-23T01:22:53.251Z,36.45
2023-04-23T01:25:20.478Z,38.50
2023-04-23T01:27:48.511Z,30.25
2023-04-23T01:30:16.685Z,35.08
2023-04-23T01:32:44.350Z,38.47
2023-04-23T01:35:13.379Z,34.17
2023-04-23T01:37:42.907Z,31.90
2023-04-23T01:40:10.402Z,35.33
2023-04-23T01:42:38.620Z,36.38
2023-04-23T01:45:08.132Z,36.13
2023-04-23T01:47:35.827Z,38.25
2023-04-23T01:50:05.174Z,32.17
2023-04-23T01:52:32.047Z,35.58
2023-04-23T01:54:59.583Z,35.22
2023-04-23T01:57:26.958Z,33.80
2023-04-23T02:00:04.291Z,33.67
2023-04-23T02:02:40.874Z,34.42
2023-04-23T02:05:20.964Z,33.03
2023-04-23T02:07:50.015Z,36.10
2023-04-23T02:10:18.682Z,32.25
2023-04-23T02:12:47.295Z,27.80
2023-04-23T02:15:15.767Z,31.95
2023-04-23T02:17:42.760Z,32.30
2023-04-23T02:20:11.414Z,29.88
2023-04-23T02:22:40.976Z,28.27
2023-04-23T02:25:09.541Z,34.55
2023-04-23T02:27:36.988Z,37.28
2023-04-23T02:30:04.807Z,29.25
2023-04-23T02:32:32.066Z,33.33
2023-04-23T02:35:02.111Z,35.08
2023-04-23T02:37:29.631Z,32.45
2023-04-23T02:39:56.690Z,32.45
2023-04-23T02:42:23.801Z,31.75
2023-04-23T02:44:50.984Z,27.83
2023-04-23T02:47:18.827Z,30.02
2023-04-23T02:49:46.071Z,37.00
2023-04-23T02:52:12.997Z,31.20
2023-04-23T02:54:40.298Z,30.02
2023-04-23T02:57:07.834Z,33.42
2023-04-23T02:59:35.704Z,34.25
2023-04-23T03:02:04.501Z,36.03
2023-04-23T03:04:32.030Z,35.22
2023-04-23T03:06:59.113Z,31.80
2023-04-23T03:09:26.358Z,36.88
2023-04-23T03:11:54.228Z,30.70
2023-04-23T03:14:21.349Z,30.85
2023-04-23T03:16:48.584Z,32.33
2023-04-23T03:19:17.109Z,30.42
2023-04-23T03:21:44.546Z,29.00
2023-04-23T03:24:13.755Z,35.30
2023-04-23T03:26:41.166Z,35.33
2023-04-23T03:29:08.382Z,33.05
2023-04-23T03:31:35.826Z,30.90
2023-04-23T03:34:03.689Z,31.88
2023-04-23T03:36:33.931Z,32.80
2023-04-23T03:39:02.343Z,39.13
2023-04-23T03:41:37.578Z,33.97
2023-04-23T03:44:05.721Z,31.33
2023-04-23T03:46:39.793Z,31.05
2023-04-23T03:49:07.562Z,32.80
2023-04-23T03:51:34.379Z,31.63
2023-04-23T03:54:02.155Z,33.55
2023-04-23T03:56:44.544Z,30.92
2023-04-23T03:59:38.708Z,30.10
2023-04-23T04:02:06.450Z,30.02
2023-04-23T04:04:34.331Z,29.75
2023-04-23T04:07:01.545Z,34.20
2023-04-23T04:09:29.713Z,32.50
2023-04-23T04:12:01.918Z,28.67
2023-04-23T04:14:32.234Z,31.85
2023-04-23T04:16:59.348Z,26.15
2023-04-23T04:19:27.126Z,30.92
2023-04-23T04:21:53.988Z,26.20
2023-04-23T04:24:23.149Z,30.40
2023-04-23T04:26:52.767Z,32.90
2023-04-23T04:29:21.386Z,31.48
2023-04-23T04:31:49.086Z,30.70
2023-04-23T04:34:18.039Z,28.15
2023-04-23T04:36:45.203Z,26.60
2023-04-23T04:39:13.570Z,27.77
2023-04-23T04:41:41.711Z,33.85
2023-04-23T04:44:09.193Z,29.80
2023-04-23T04:46:40.806Z,31.98
2023-04-23T04:49:11.822Z,32.80
2023-04-23T04:51:40.803Z,32.83
2023-04-23T04:54:08.537Z,32.63
2023-04-23T04:56:35.475Z,31.63
2023-04-23T04:59:04.139Z,32.03
2023-04-23T05:01:33.335Z,37.78
2023-04-23T05:04:00.949Z,31.65
2023-04-23T05:06:28.822Z,31.77
2023-04-23T05:08:56.385Z,28.58
2023-04-23T05:11:23.904Z,28.55
2023-04-23T05:13:51.656Z,29.88
2023-04-23T05:16:19.634Z,33.15
2023-04-23T05:18:46.865Z,28.02
2023-04-23T05:21:15.261Z,28.10
2023-04-23T05:23:42.699Z,32.10
2023-04-23T05:26:11.008Z,32.65
2023-04-23T05:28:38.321Z,26.20
2023-04-23T05:31:05.272Z,24.65
2023-04-23T05:33:39.244Z,23.58
2023-04-23T05:36:10.151Z,28.05
2023-04-23T05:38:38.987Z,26.42
2023-04-23T05:41:06.025Z,26.13
2023-04-23T05:43:33.206Z,29.85
2023-04-23T05:46:00.861Z,25.20
2023-04-23T05:48:29.175Z,23.35
2023-04-23T05:50:56.076Z,23.55
2023-04-23T05:53:23.240Z,24.63
2023-04-23T05:55:50.270Z,22.80
2023-04-23T05:58:19.191Z,21.52
2023-04-23T06:00:46.215Z,25.52
2023-04-23T06:03:13.498Z,26.35
2023-04-23T06:05:43.256Z,21.58
2023-04-23T06:08:10.611Z,25.88
2023-04-23T06:10:38.108Z,21.55
2023-04-23T06:13:05.286Z,22.17
2023-04-23T06:15:32.230Z,17.98
2023-04-23T06:17:59.706Z,22.15
2023-04-23T06:20:26.653Z,17.65
2023-04-23T06:22:54.174Z,17.98
2023-04-23T06:25:21.172Z,25.88
2023-04-23T06:27:48.681Z,18.02
2023-04-23T06:30:20.644Z,17.23
2023-04-23T06:32:48.168Z,16.80
2023-04-23T06:35:15.189Z,18.58
2023-04-23T06:37:43.107Z,22.35
2023-04-23T06:40:11.257Z,17.38
2023-04-23T06:42:39.289Z,17.95
2023-04-23T06:45:24.858Z,21.75
2023-04-23T06:47:52.485Z,17.70
2023-04-23T06:50:19.550Z,21.52
2023-04-23T06:52:46.993Z,15.07
2023-04-23T06:55:13.939Z,17.88
2023-04-23T06:57:41.647Z,17.05
2023-04-23T07:00:09.381Z,16.08
2023-04-23T07:02:39.332Z,14.50
2023-04-23T07:05:07.810Z,15.57
2023-04-23T07:07:37.417Z,17.17
2023-04-23T07:10:05.635Z,14.60
2023-04-23T07:12:33.119Z,14.93
2023-04-23T07:15:00.230Z,13.10
2023-04-23T07:17:27.749Z,14.43
2023-04-23T07:19:54.630Z,14.27
2023-04-23T07:22:22.169Z,19.52
2023-04-23T07:24:49.255Z,14.63
2023-04-23T07:27:16.460Z,14.10
2023-04-23T07:29:43.411Z,15.68
2023-04-23T07:32:11.637Z,14.98
2023-04-23T07:34:39.230Z,9.95
2023-04-23T07:37:06.676Z,11.32
2023-04-23T07:39:34.053Z,13.73
2023-04-23T07:42:02.185Z,19.65
2023-04-23T07:44:29.318Z,10.40
2023-04-23T07:46:56.642Z,10.68
2023-04-23T07:49:23.892Z,12.23
2023-04-23T07:51:51.107Z,12.75
2023-04-23T07:54:18.069Z,12.60
2023-04-23T07:56:45.163Z,11.00
2023-04-23T07:59:12.288Z,8.73
2023-04-23T08:01:39.629Z,9.40
2023-04-23T08:04:07.111Z,7.35
2023-04-23T08:06:35.642Z,10.05
2023-04-23T08:09:06.409Z,9.85
2023-04-23T08:11:34.250Z,12.70
2023-04-23T08:14:01.716Z,6.78
2023-04-23T08:16:30.420Z,8.00
2023-04-23T08:19:05.235Z,7.22
2023-04-23T08:21:34.926Z,6.70
2023-04-23T08:24:03.367Z,10.85
2023-04-23T08:26:31.628Z,11.48
2023-04-23T08:29:00.582Z,7.40
2023-04-23T08:31:27.825Z,7.13
2023-04-23T08:33:56.025Z,9.75
2023-04-23T08:36:23.200Z,7.68
2023-04-23T08:38:50.348Z,7.72
2023-04-23T08:41:22.808Z,7.85
2023-04-23T08:44:01.986Z,9.07
2023-04-23T08:46:33.039Z,9.25
2023-04-23T08:49:02.989Z,5.17
2023-04-23T08:51:32.959Z,6.07
2023-04-23T08:54:04.878Z,7.43
2023-04-23T08:56:32.744Z,5.22
2023-04-23T08:59:00.041Z,7.13
2023-04-23T09:01:28.004Z,7.45
2023-04-23T09:03:55.514Z,9.10
2023-04-23T09:06:23.323Z,7.55
2023-04-23T09:08:51.556Z,6.30
2023-04-23T09:11:20.648Z,6.53
2023-04-23T09:13:47.618Z,5.15
2023-04-23T09:16:15.487Z,6.28
2023-04-23T09:18:42.424Z,7.60
2023-04-23T09:21:10.882Z,5.95
2023-04-23T09:23:41.436Z,5.55
2023-04-23T09:26:08.791Z,5.13
2023-04-23T09:28:36.494Z,6.93
2023-04-23T09:31:07.861Z,7.60
2023-04-23T09:33:36.510Z,5.18
2023-04-23T09:36:15.640Z,9.68
2023-04-23T09:38:43.152Z,5.50
2023-04-23T09:41:27.030Z,6.35
2023-04-23T09:43:57.671Z,6.88
2023-04-23T09:46:38.262Z,6.32
2023-04-23T09:49:10.414Z,9.77
2023-04-23T09:51:40.409Z,5.50
2023-04-23T09:54:27.970Z,5.68
2023-04-23T09:57:00.910Z,12.43
2023-04-23T09:59:46.750Z,12.05
2023-04-23T10:02:14.937Z,9.13
2023-04-23T10:04:42.672Z,4.75
2023-04-23T10:07:20.451Z,6.43
2023-04-23T10:09:48.336Z,7.75
2023-04-23T10:12:35.710Z,7.25
2023-04-23T10:15:06.018Z,5.10
2023-04-23T10:17:38.304Z,7.22
2023-04-23T10:20:09.910Z,6.78
2023-04-23T10:22:38.861Z,6.97
2023-04-23T10:25:12.168Z,6.60
2023-04-23T10:27:53.230Z,4.85
2023-04-23T10:30:22.931Z,5.03
2023-04-23T10:32:50.966Z,4.90
2023-04-23T10:35:18.686Z,7.78
2023-04-23T10:37:48.537Z,8.15
2023-04-23T10:40:22.055Z,5.53
2023-04-23T10:42:50.101Z,4.55
2023-04-23T10:47:49.111Z,9.32
2023-04-23T10:50:23.194Z,5.95
2023-04-23T10:52:54.541Z,4.65
2023-04-23T10:58:16.666Z,6.97
2023-04-23T11:00:46.646Z,8.27
2023-04-23T11:03:34.687Z,5.65
2023-04-23T11:06:05.877Z,7.03
2023-04-23T11:08:36.085Z,6.30
2023-04-23T11:11:07.940Z,7.38
2023-04-23T11:13:35.576Z,6.30
2023-04-23T11:16:16.700Z,5.10
2023-04-23T11:19:05.262Z,11.25
2023-04-23T11:22:03.320Z,5.45
2023-04-23T11:24:44.693Z,6.40
2023-04-23T11:27:17.412Z,6.13
2023-04-23T11:29:46.709Z,7.07
2023-04-23T11:32:16.589Z,6.78
2023-04-23T11:34:46.093Z,4.80
2023-04-23T11:37:15.532Z,6.20
2023-04-23T11:39:44.541Z,115.15
2023-04-23T11:42:17.359Z,7.25
2023-04-23T11:44:45.699Z,8.18
2023-04-23T11:47:14.742Z,8.00
2023-04-23T11:49:44.670Z,5.55
2023-04-23T11:52:12.797Z,4.95
2023-04-23T11:54:41.403Z,8.35
2023-04-23T11:57:08.969Z,5.72
2023-04-23T11:59:36.162Z,5.50
2023-04-23T12:02:03.435Z,4.20
2023-04-23T12:04:32.246Z,5.05
2023-04-23T12:07:00.163Z,4.95
2023-04-23T12:09:29.623Z,3.75
2023-04-23T12:11:58.884Z,10.20
2023-04-23T12:14:31.309Z,4.18
2023-04-23T12:17:08.847Z,7.38
2023-04-23T12:19:36.634Z,4.45
2023-04-23T12:22:04.530Z,5.10
2023-04-23T12:24:46.965Z,7.28
2023-04-23T12:27:16.818Z,4.55
2023-04-23T12:29:47.363Z,5.60
2023-04-23T12:32:15.627Z,9.57
2023-04-23T12:34:56.119Z,5.82
2023-04-23T12:37:31.137Z,7.32
2023-04-23T12:39:59.682Z,5.72
2023-04-23T12:42:27.182Z,6.75
2023-04-23T12:44:56.477Z,5.57
2023-04-23T12:47:23.604Z,9.77
2023-04-23T12:49:53.899Z,6.85
2023-04-23T12:52:21.503Z,8.35
2023-04-23T12:54:52.789Z,6.00
2023-04-23T12:57:23.562Z,6.93
2023-04-23T12:59:50.982Z,5.68
2023-04-23T13:02:18.124Z,5.10
2023-04-23T13:04:46.322Z,6.97
2023-04-23T13:07:13.940Z,6.18
2023-04-23T13:09:42.253Z,5.97
2023-04-23T13:12:09.569Z,6.13
2023-04-23T13:14:36.794Z,3.83
2023-04-23T13:17:04.169Z,4.45
2023-04-23T13:19:31.685Z,6.22
2023-04-23T13:21:58.552Z,7.22
2023-04-23T13:24:25.686Z,6.45
2023-04-23T13:26:52.514Z,9.20
2023-04-23T13:29:19.827Z,17.10
2023-04-23T13:31:47.174Z,7.25
2023-04-23T13:34:14.481Z,7.32
2023-04-23T13:36:41.781Z,6.78
2023-04-23T13:39:10.120Z,5.43
2023-04-23T13:41:37.128Z,7.70
2023-04-23T13:44:04.341Z,6.80
2023-04-23T13:46:32.173Z,7.30
2023-04-23T13:49:01.177Z,5.72
2023-04-23T13:51:35.247Z,5.03
2023-04-23T13:54:03.785Z,4.93
2023-04-23T13:56:31.750Z,6.85
2023-04-23T13:59:18.846Z,6.63
2023-04-23T14:01:51.582Z,6.30
2023-04-23T14:04:21.195Z,5.22
2023-04-23T14:06:48.069Z,4.57
2023-04-23T14:09:15.771Z,8.52
2023-04-23T14:11:42.907Z,5.38
2023-04-23T14:14:10.671Z,6.03
2023-04-23T14:16:37.607Z,4.93
2023-04-23T14:19:04.962Z,7.28
2023-04-23T14:21:31.883Z,4.15
2023-04-23T14:24:07.169Z,7.82
2023-04-23T14:26:47.825Z,9.57
2023-04-23T14:29:34.775Z,3.42
2023-04-23T14:32:02.479Z,4.80
2023-04-23T14:34:29.793Z,7.68
2023-04-23T14:36:56.986Z,6.38
2023-04-23T14:39:26.340Z,6.57
2023-04-23T14:41:53.489Z,4.90
2023-04-23T14:44:23.438Z,4.65
2023-04-23T14:46:51.433Z,6.68
2023-04-23T14:49:20.984Z,5.32
2023-04-23T14:51:55.793Z,8.18
2023-04-23T14:54:23.778Z,6.72
2023-04-23T14:56:52.022Z,9.00
2023-04-23T14:59:19.843Z,6.85
2023-04-23T15:01:46.760Z,7.30
2023-04-23T15:04:14.780Z,5.82
2023-04-23T15:06:41.996Z,5.53
2023-04-23T15:09:09.409Z,4.60
2023-04-23T15:11:37.951Z,7.07
2023-04-23T15:14:05.699Z,10.75
2023-04-23T15:19:12.174Z,7.63
2023-04-23T15:21:39.593Z,6.57
2023-04-23T15:24:07.950Z,12.20
2023-04-23T15:26:36.399Z,9.25
2023-04-23T15:29:05.150Z,7.63
2023-04-23T15:31:32.273Z,10.63
2023-04-23T15:33:59.640Z,6.10
2023-04-23T15:36:26.618Z,9.45
2023-04-23T15:38:54.278Z,6.50
2023-04-23T15:41:21.989Z,10.18
2023-04-23T15:43:50.482Z,5.53
2023-04-23T15:46:17.525Z,6.40
2023-04-23T15:48:44.900Z,4.85
2023-04-23T15:51:11.978Z,7.45
2023-04-23T15:53:39.596Z,13.88
2023-04-23T15:56:06.574Z,8.20
2023-04-23T15:58:34.111Z,10.07
2023-04-23T16:01:02.135Z,11.38
2023-04-23T16:03:29.922Z,14.65
2023-04-23T16:05:56.912Z,6.25
2023-04-23T16:08:24.714Z,7.70
2023-04-23T16:10:51.686Z,8.70
2023-04-23T16:13:18.989Z,10.05
2023-04-23T16:15:46.124Z,6.55
2023-04-23T16:18:13.680Z,6.18
2023-04-23T16:20:41.452Z,7.38
2023-04-23T16:23:08.606Z,7.30
2023-04-23T16:25:37.170Z,8.27
2023-04-23T16:28:04.999Z,7.15
2023-04-23T16:30:32.198Z,10.18
2023-04-23T16:32:59.461Z,8.13
2023-04-23T16:35:26.942Z,17.23
2023-04-23T16:37:54.559Z,7.28
2023-04-23T16:40:21.623Z,6.32
2023-04-23T16:42:49.183Z,11.75
2023-04-23T16:45:16.756Z,6.60
2023-04-23T16:47:44.457Z,8.52
2023-04-23T16:50:11.986Z,8.02
2023-04-23T16:52:39.231Z,11.05
2023-04-23T16:55:07.171Z,6.80
2023-04-23T16:57:36.622Z,6.38
2023-04-23T17:00:05.187Z,6.38
2023-04-23T17:02:32.918Z,7.53
2023-04-23T17:05:00.195Z,4.97
2023-04-23T17:07:27.275Z,7.30
2023-04-23T17:09:54.768Z,10.57
2023-04-23T17:12:22.684Z,5.72
2023-04-23T17:14:49.549Z,11.52
2023-04-23T17:17:17.049Z,13.77
2023-04-23T17:19:45.679Z,6.28
2023-04-23T17:22:14.011Z,7.50
2023-04-23T17:24:41.306Z,8.57
2023-04-23T17:27:08.965Z,9.68
2023-04-23T17:29:36.130Z,8.85
2023-04-23T17:32:04.558Z,8.40
2023-04-23T17:34:31.549Z,6.53
2023-04-23T17:36:59.071Z,12.95
2023-04-23T17:39:26.226Z,7.60
2023-04-23T17:41:54.639Z,8.27
2023-04-23T17:44:21.530Z,13.40
2023-04-23T17:46:49.123Z,9.93
2023-04-23T17:49:16.588Z,12.82
2023-04-23T17:51:44.030Z,8.93
2023-04-23T17:54:11.456Z,17.52
2023-04-23T17:56:40.160Z,9.43
2023-04-23T17:59:07.324Z,6.35
2023-04-23T18:01:34.743Z,14.57
2023-04-23T18:04:02.121Z,9.40
2023-04-23T18:06:29.795Z,9.55
2023-04-23T18:08:57.033Z,10.38
2023-04-23T18:11:24.587Z,12.45
2023-04-23T18:13:53.510Z,9.18
2023-04-23T18:16:21.128Z,8.05
2023-04-23T18:18:49.420Z,7.88
2023-04-23T18:21:18.237Z,12.05
2023-04-23T18:23:45.582Z,9.55
2023-04-23T18:26:13.044Z,9.88
2023-04-23T18:28:40.345Z,9.63
2023-04-23T18:31:07.872Z,10.20
2023-04-23T18:33:42.179Z,8.20
2023-04-23T18:36:31.654Z,10.40
2023-04-23T18:38:59.540Z,15.70
2023-04-23T18:41:29.866Z,9.93
2023-04-23T18:43:57.205Z,10.10
2023-04-23T18:46:24.703Z,13.30
2023-04-23T18:48:52.442Z,16.52
2023-04-23T18:51:26.542Z,12.95
2023-04-23T18:53:54.092Z,10.25
2023-04-23T18:56:21.388Z,9.00
2023-04-23T18:58:52.588Z,12.80
2023-04-23T19:01:20.902Z,13.90
2023-04-23T19:03:48.375Z,11.00
2023-04-23T19:06:15.995Z,16.67
2023-04-23T19:08:42.925Z,7.68
2023-04-23T19:11:10.365Z,9.95
2023-04-23T19:13:37.564Z,10.45
2023-04-23T19:16:04.821Z,14.90
2023-04-23T19:18:32.128Z,9.85
2023-04-23T19:20:59.435Z,9.05
2023-04-23T19:23:26.520Z,12.95
2023-04-23T19:25:53.776Z,7.95
2023-04-23T19:28:20.917Z,10.77
2023-04-23T19:30:48.111Z,8.23
2023-04-23T19:33:15.459Z,13.57
2023-04-23T19:35:42.940Z,25.83
2023-04-23T19:38:10.128Z,8.18
2023-04-23T19:40:37.472Z,9.30
2023-04-23T19:43:05.328Z,12.93
2023-04-23T19:45:33.177Z,11.90
2023-04-23T19:48:00.748Z,9.43
2023-04-23T19:50:27.972Z,10.30
2023-04-23T19:52:54.983Z,8.55
2023-04-23T19:55:26.978Z,10.52
2023-04-23T19:57:55.427Z,12.40
2023-04-23T20:00:27.044Z,11.35
2023-04-23T20:02:55.787Z,14.10
2023-04-23T20:05:23.076Z,9.82
2023-04-23T20:07:50.353Z,14.50
2023-04-23T20:10:17.777Z,17.55
2023-04-23T20:12:44.721Z,10.48
2023-04-23T20:15:12.776Z,12.32
2023-04-23T20:17:41.096Z,14.27
2023-04-23T20:20:09.487Z,15.55
2023-04-23T20:22:36.408Z,19.33
2023-04-23T20:25:05.287Z,10.73
2023-04-23T20:27:33.337Z,14.65
2023-04-23T20:30:00.841Z,15.80
2023-04-23T20:32:27.743Z,15.02
2023-04-23T20:34:55.046Z,10.60
2023-04-23T20:37:22.020Z,10.95
2023-04-23T20:39:50.040Z,11.48
2023-04-23T20:42:17.062Z,12.32
2023-04-23T20:44:47.038Z,11.25
2023-04-23T20:47:14.328Z,11.43
2023-04-23T20:49:41.783Z,10.55
2023-04-23T20:52:09.123Z,15.95
2023-04-23T20:54:36.499Z,13.35
2023-04-23T20:57:03.969Z,11.10
2023-04-23T20:59:31.258Z,11.43
2023-04-23T21:01:58.940Z,17.95
2023-04-23T21:04:26.207Z,12.35
2023-04-23T21:06:53.370Z,11.27
2023-04-23T21:09:21.112Z,10.48
2023-04-23T21:11:48.352Z,11.07
2023-04-23T21:14:15.672Z,11.38
2023-04-23T21:16:42.984Z,13.20
2023-04-23T21:19:10.256Z,12.27
2023-04-23T21:21:37.295Z,13.15
2023-04-23T21:24:04.749Z,17.00
2023-04-23T21:26:32.630Z,11.10
2023-04-23T21:28:59.769Z,13.25
2023-04-23T21:31:30.414Z,12.40
2023-04-23T21:33:57.796Z,11.00
2023-04-23T21:36:24.822Z,10.90
2023-04-23T21:38:53.131Z,9.68
2023-04-23T21:41:20.301Z,9.65
2023-04-23T21:43:47.625Z,11.38
2023-04-23T21:46:14.716Z,9.88
2023-04-23T21:48:42.118Z,12.32
2023-04-23T21:51:09.000Z,9.38
2023-04-23T21:53:36.094Z,12.95
2023-04-23T21:56:03.327Z,12.68
2023-04-23T21:58:32.694Z,11.40
2023-04-23T22:01:00.781Z,12.13
2023-04-23T22:03:37.805Z,11.80
2023-04-23T22:06:07.294Z,10.35
2023-04-23T22:08:34.849Z,14.00
2023-04-23T22:11:01.654Z,12.57
2023-04-23T22:13:28.876Z,10.20
2023-04-23T22:15:57.322Z,11.77
2023-04-23T22:18:25.568Z,11.63
2023-04-23T22:20:53.123Z,11.55
2023-04-23T22:23:20.621Z,11.98
2023-04-23T22:25:47.678Z,9.10
2023-04-23T22:28:15.346Z,12.77
2023-04-23T22:30:42.602Z,11.50
2023-04-23T22:33:10.334Z,9.00
2023-04-23T22:35:37.175Z,9.85
2023-04-23T22:38:05.479Z,14.88
2023-04-23T22:40:32.548Z,10.52
2023-04-23T22:43:00.130Z,8.98
2023-04-23T22:45:27.024Z,14.52
2023-04-23T22:47:54.884Z,10.68
2023-04-23T22:50:22.318Z,12.80
2023-04-23T22:52:49.838Z,12.88
2023-04-23T22:55:16.941Z,15.63
2023-04-23T22:57:44.353Z,14.73
2023-04-23T23:00:12.971Z,12.70
2023-04-23T23:02:40.375Z,15.73
2023-04-23T23:05:07.794Z,12.95
2023-04-23T23:07:35.040Z,15.10
2023-04-23T23:10:03.727Z,14.27
2023-04-23T23:12:30.982Z,14.57
2023-04-23T23:14:58.195Z,13.32
2023-04-23T23:17:25.507Z,13.55
2023-04-23T23:19:52.680Z,9.68
2023-04-23T23:22:19.943Z,12.07
2023-04-23T23:24:47.081Z,10.48
2023-04-23T23:27:14.242Z,12.75
2023-04-23T23:29:41.757Z,16.60
2023-04-23T23:32:09.384Z,14.05
2023-04-23T23:34:36.486Z,12.65
2023-04-23T23:37:03.621Z,10.85
2023-04-23T23:39:30.834Z,12.50
2023-04-23T23:41:59.709Z,12.88
2023-04-23T23:44:27.602Z,13.40
2023-04-23T23:46:54.813Z,13.23
2023-04-23T23:49:22.538Z,14.73
2023-04-23T23:51:49.632Z,10.35
2023-04-23T23:54:16.548Z,14.10
2023-04-23T23:56:43.808Z,14.30
2023-04-23T23:59:10.886Z,17.15
